FAEL

Ben Schoeman Airport

East London, South Africa
METAR FAEL 141800Z 32005KT 9999 FEW045 11/08 Q1024
Observed Flight Rules
Aug-14 @ 18:00 UTC (7 hours ago) Visual Flight Rules
Wind Visibility Clouds
320° at 5 knots 10,000+ meters
  • Few at 4,500' AGL
Temperatures Readings
Current 11°C / 52°F
Dewpoint 8°C / 46°F
Humidity 82%
Altimeter 30.24" Hg
Pressure 1024 hPa
Elevation 125
METAR FAEL 141800Z 32005KT 9999 FEW045 11/08 Q1024
Observed Flight Rules
Aug-14 @ 18:00 UTC
(7 hours ago)
VFR
Wind Visibility
320° at 5 knots 10,000+ meters
Clouds
  • Few at 4,500' AGL
Temperature Dewpoint
11°C / 52°F 8°C / 46°F
Humidity Altimeter Pressure
82% 30.24" Hg 1024 hPa